Time;durP1;ratioP1;P1;durP2;ratioP2;P2;SDS_P1;SDS_P2;PMS_P1;PMS_P2;Temp;Humidity;BMP_temperature;BMP_pressure;BME280_temperature;BME280_humidity;BME280_pressure;Samples;Min_cycle;Max_cycle;Signal;HPM_P1;HPM_P2
2024/02/22 00:01:11;;;;;;;12.90;7.78;;;;;;;11.03;83.76;100482.59;5095071;28;20360;-65
2024/02/22 00:03:37;;;;;;;12.50;8.02;;;;;;;10.93;84.44;100476.53;5096505;28;20028;-67
2024/02/22 00:06:05;;;;;;;12.55;8.27;;;;;;;10.92;83.96;100485.44;5098631;28;20087;-67
2024/02/22 00:08:30;;;;;;;12.63;7.75;;;;;;;10.86;84.39;100471.81;5098664;28;20076;-67
2024/02/22 00:10:57;;;;;;;14.02;7.72;;;;;;;10.76;84.97;100476.31;5099024;28;20040;-67
2024/02/22 00:13:23;;;;;;;13.60;8.35;;;;;;;10.65;84.77;100475.66;5099553;28;20031;-67
2024/02/22 00:15:49;;;;;;;13.60;7.90;;;;;;;10.58;84.57;100471.91;5099271;28;20044;-68
2024/02/22 00:18:15;;;;;;;14.07;8.35;;;;;;;10.50;84.93;100470.00;5098745;28;20241;-68
2024/02/22 00:20:40;;;;;;;11.07;8.07;;;;;;;10.43;84.84;100463.59;5100088;28;20040;-67
2024/02/22 00:23:06;;;;;;;11.45;7.47;;;;;;;10.39;84.53;100462.19;5098131;28;20070;-67
2024/02/22 00:25:32;;;;;;;11.63;7.10;;;;;;;10.22;84.97;100451.34;5099448;28;20047;-67
2024/02/22 00:27:58;;;;;;;12.38;6.90;;;;;;;10.07;85.44;100470.44;5098148;28;20051;-67
2024/02/22 00:30:25;;;;;;;9.73;6.78;;;;;;;10.03;86.16;100461.09;5099472;28;20222;-67
2024/02/22 00:32:50;;;;;;;10.70;7.07;;;;;;;10.01;85.83;100455.97;5098739;28;20028;-67
2024/02/22 00:35:16;;;;;;;13.15;8.60;;;;;;;10.02;85.60;100456.78;5098994;28;20621;-68
2024/02/22 00:37:42;;;;;;;12.18;7.38;;;;;;;9.99;86.15;100454.44;5097707;28;20352;-67
2024/02/22 00:40:09;;;;;;;10.27;7.10;;;;;;;9.96;86.04;100460.84;5098568;28;20039;-67
2024/02/22 00:42:35;;;;;;;9.35;6.22;;;;;;;9.92;86.26;100448.88;5098238;28;20047;-67
2024/02/22 00:45:00;;;;;;;9.73;6.03;;;;;;;9.96;86.01;100444.13;5098679;28;20032;-67
2024/02/22 00:47:26;;;;;;;8.35;6.13;;;;;;;9.82;86.03;100448.88;5099343;28;20245;-67
2024/02/22 00:49:52;;;;;;;9.88;6.25;;;;;;;9.77;87.10;100450.25;5097381;28;20046;-67
2024/02/22 00:52:17;;;;;;;9.57;6.00;;;;;;;9.92;86.07;100446.22;5098015;28;20131;-67
2024/02/22 00:54:44;;;;;;;11.27;6.75;;;;;;;9.98;84.07;100439.53;5098227;28;20059;-67
2024/02/22 00:57:09;;;;;;;12.10;6.55;;;;;;;10.01;83.77;100445.38;5098363;28;20046;-67
2024/02/22 00:59:35;;;;;;;9.00;6.20;;;;;;;9.95;83.02;100445.94;5096522;28;20103;-67
2024/02/22 01:02:01;;;;;;;7.43;4.90;;;;;;;9.94;83.59;100438.97;5099227;28;20394;-67
2024/02/22 01:04:27;;;;;;;9.48;6.20;;;;;;;9.66;84.64;100439.81;5097463;28;20080;-67
2024/02/22 01:06:54;;;;;;;21.83;9.93;;;;;;;9.73;84.86;100439.13;5098182;28;20040;-67
2024/02/22 01:09:20;;;;;;;22.67;10.20;;;;;;;9.86;83.20;100433.56;5096754;28;20031;-67
2024/02/22 01:11:46;;;;;;;19.60;9.77;;;;;;;9.83;82.59;100417.97;5098642;28;20238;-67
2024/02/22 01:14:12;;;;;;;15.05;7.40;;;;;;;9.84;82.31;100420.47;5098068;28;20270;-67
2024/02/22 01:16:38;;;;;;;10.98;5.75;;;;;;;9.85;82.83;100416.00;5098822;28;20031;-68
2024/02/22 01:19:03;;;;;;;9.90;6.25;;;;;;;9.86;82.49;100413.22;5096249;28;20054;-67
2024/02/22 01:21:30;;;;;;;8.80;6.20;;;;;;;9.88;82.86;100400.69;5097181;28;20051;-67
2024/02/22 01:23:56;;;;;;;10.00;6.82;;;;;;;9.73;83.43;100391.53;5097508;28;20622;-67
2024/02/22 01:26:21;;;;;;;10.40;6.20;;;;;;;9.99;82.29;100402.34;5098227;28;20254;-67
2024/02/22 01:28:50;;;;;;;10.55;5.97;;;;;;;9.97;81.92;100406.13;5098179;28;20039;-67
2024/02/22 01:31:16;;;;;;;6.88;4.80;;;;;;;9.88;82.76;100399.84;5096200;28;20040;-67
2024/02/22 01:33:43;;;;;;;6.10;4.10;;;;;;;9.87;83.54;100395.53;5097709;28;20058;-66
2024/02/22 01:36:10;;;;;;;5.20;4.03;;;;;;;9.88;83.67;100386.63;5096072;28;20043;-67
2024/02/22 01:38:35;;;;;;;5.63;4.00;;;;;;;9.90;84.45;100387.31;5097966;28;20044;-68
2024/02/22 01:41:01;;;;;;;8.05;4.55;;;;;;;9.82;84.23;100381.91;5095017;28;20035;-67
2024/02/22 01:43:27;;;;;;;6.43;4.60;;;;;;;9.62;85.11;100365.25;5097157;28;20101;-67
2024/02/22 01:45:53;;;;;;;7.00;4.32;;;;;;;9.35;85.78;100388.88;5095596;28;20103;-67
2024/02/22 01:48:19;;;;;;;8.27;4.85;;;;;;;9.09;88.24;100391.19;5097187;28;20046;-67
2024/02/22 01:50:52;;;;;;;6.75;4.55;;;;;;;9.06;88.36;100399.41;5096642;28;20044;-66
2024/02/22 01:53:18;;;;;;;6.55;4.90;;;;;;;8.97;88.45;100393.13;5094747;28;20034;-66
2024/02/22 01:55:44;;;;;;;7.43;4.72;;;;;;;9.12;88.00;100391.75;5096187;28;20449;-67
2024/02/22 01:58:10;;;;;;;6.30;4.20;;;;;;;8.97;87.84;100393.13;5088896;28;20599;-67
2024/02/22 02:00:37;;;;;;;5.72;3.70;;;;;;;8.93;87.85;100392.56;5095387;28;20059;-66
2024/02/22 02:03:03;;;;;;;5.93;4.15;;;;;;;8.99;87.26;100385.06;5096458;28;20040;-67
2024/02/22 02:05:28;;;;;;;6.53;4.15;;;;;;;8.85;87.40;100384.47;5096055;28;20195;-67
2024/02/22 02:07:54;;;;;;;5.97;4.53;;;;;;;8.75;88.09;100383.63;5097639;28;20036;-67
2024/02/22 02:10:19;;;;;;;6.07;4.50;;;;;;;8.54;88.37;100372.31;5097338;28;20035;-67
2024/02/22 02:12:45;;;;;;;7.50;4.28;;;;;;;8.56;89.01;100373.00;5097578;28;20244;-67
2024/02/22 02:15:10;;;;;;;6.93;3.97;;;;;;;8.62;88.97;100378.59;5095336;28;20345;-67
2024/02/22 02:17:36;;;;;;;7.40;4.30;;;;;;;8.77;87.63;100372.94;5096007;28;20099;-67
2024/02/22 02:20:07;;;;;;;5.47;3.28;;;;;;;8.68;86.90;100374.56;5096641;28;20236;-67
2024/02/22 02:23:03;;;;;;;5.90;4.03;;;;;;;8.92;85.92;100377.69;5096822;28;20065;-67
2024/02/22 02:25:30;;;;;;;7.13;4.43;;;;;;;8.94;85.08;100372.28;5095680;28;20322;-67
2024/02/22 02:27:56;;;;;;;6.68;4.35;;;;;;;8.95;85.63;100366.00;5096269;28;20206;-67
2024/02/22 02:30:21;;;;;;;7.50;3.67;;;;;;;8.74;85.57;100374.03;5096333;28;20058;-68
2024/02/22 02:32:47;;;;;;;5.30;3.47;;;;;;;8.93;85.23;100368.78;5096615;28;20036;-67
2024/02/22 02:35:12;;;;;;;6.50;3.72;;;;;;;9.00;84.85;100373.53;5097030;28;20024;-67
2024/02/22 02:37:38;;;;;;;6.05;3.60;;;;;;;8.77;85.23;100372.94;5096485;28;20039;-67
2024/02/22 02:40:04;;;;;;;5.13;3.80;;;;;;;8.76;85.26;100371.25;5096194;28;20087;-67
2024/02/22 02:42:29;;;;;;;5.38;3.50;;;;;;;8.92;84.68;100380.34;5095633;28;20055;-67
2024/02/22 02:44:55;;;;;;;5.05;3.88;;;;;;;9.00;83.23;100374.38;5098265;28;20031;-67
2024/02/22 02:47:20;;;;;;;15.10;6.55;;;;;;;9.16;82.37;100387.03;5095864;28;20214;-67
2024/02/22 02:49:46;;;;;;;8.13;4.38;;;;;;;9.25;80.32;100378.28;5098143;28;20166;-67
2024/02/22 02:52:11;;;;;;;5.25;3.88;;;;;;;9.20;80.03;100378.69;5095908;28;20248;-66
2024/02/22 02:54:37;;;;;;;8.05;5.03;;;;;;;9.22;80.19;100379.41;5097624;28;20031;-68
2024/02/22 02:57:02;;;;;;;6.25;4.00;;;;;;;9.26;79.67;100380.78;5095496;28;20041;-67
2024/02/22 02:59:27;;;;;;;5.00;3.83;;;;;;;9.24;79.47;100382.75;5095924;28;20150;-67
2024/02/22 03:01:53;;;;;;;7.10;4.45;;;;;;;9.30;78.97;100384.00;5095957;28;20036;-67
2024/02/22 03:04:19;;;;;;;5.25;3.90;;;;;;;9.12;78.30;100380.34;5096183;28;20032;-67
2024/02/22 03:06:45;;;;;;;5.50;4.13;;;;;;;9.06;78.57;100383.56;5096234;28;20046;-67
2024/02/22 03:09:11;;;;;;;4.88;3.45;;;;;;;9.04;78.46;100375.75;5096865;28;20028;-65
2024/02/22 03:11:37;;;;;;;6.90;4.13;;;;;;;9.01;78.56;100378.69;5096183;28;20221;-65
2024/02/22 03:14:02;;;;;;;6.80;4.18;;;;;;;8.95;78.57;100385.34;5097096;28;20032;-65
2024/02/22 03:16:28;;;;;;;5.47;3.92;;;;;;;8.82;78.70;100382.13;5096448;28;20036;-64
2024/02/22 03:18:53;;;;;;;7.63;4.45;;;;;;;8.83;79.54;100375.03;5095262;28;20040;-65
2024/02/22 03:21:22;;;;;;;5.00;4.13;;;;;;;8.95;78.84;100387.16;5096046;28;20063;-64
2024/02/22 03:23:49;;;;;;;8.40;3.72;;;;;;;9.03;78.33;100389.09;5093995;28;20401;-65
2024/02/22 03:26:16;;;;;;;6.22;3.92;;;;;;;8.94;78.20;100381.03;5096006;28;20437;-64
2024/02/22 03:28:42;;;;;;;9.63;4.90;;;;;;;9.03;78.27;100389.09;5094562;28;20036;-65
2024/02/22 03:31:08;;;;;;;17.90;6.63;;;;;;;9.10;77.83;100390.22;5096145;28;20028;-67
2024/02/22 03:33:34;;;;;;;5.07;3.58;;;;;;;9.09;77.42;100396.47;5095458;28;20043;-67
2024/02/22 03:36:04;;;;;;;6.30;4.05;;;;;;;9.11;77.45;100400.66;5095450;28;20031;-64
2024/02/22 03:38:30;;;;;;;5.03;4.28;;;;;;;8.98;77.87;100396.59;5097714;28;20036;-65
2024/02/22 03:40:56;;;;;;;7.07;4.03;;;;;;;8.96;78.08;100405.50;5099707;28;20237;-65
2024/02/22 03:43:21;;;;;;;5.18;3.92;;;;;;;8.86;77.83;100406.44;5100192;28;20040;-65
2024/02/22 03:45:47;;;;;;;6.28;3.90;;;;;;;8.89;77.84;100404.38;5099684;28;20031;-65
2024/02/22 03:48:12;;;;;;;6.25;4.05;;;;;;;8.88;77.13;100407.16;5100283;28;20344;-65
2024/02/22 03:50:38;;;;;;;4.97;4.03;;;;;;;8.71;77.00;100405.97;5100124;28;20028;-65
2024/02/22 03:53:04;;;;;;;10.18;4.53;;;;;;;8.70;77.58;100406.13;5100425;28;20272;-65
2024/02/22 03:55:30;;;;;;;8.40;3.78;;;;;;;8.77;77.42;100404.63;5099950;28;20039;-65
2024/02/22 03:57:56;;;;;;;7.75;4.47;;;;;;;8.60;78.09;100404.28;5100861;28;20096;-65
2024/02/22 04:00:21;;;;;;;7.85;4.88;;;;;;;8.70;76.54;100404.31;5098511;28;20031;-65
2024/02/22 04:02:48;;;;;;;6.68;5.00;;;;;;;8.70;76.23;100406.97;5099889;28;20383;-65
2024/02/22 04:05:15;;;;;;;9.20;5.50;;;;;;;8.60;77.29;100406.91;5099339;28;20039;-66
2024/02/22 04:07:42;;;;;;;14.35;7.43;;;;;;;8.61;77.94;100392.75;5100127;28;20461;-65
2024/02/22 04:10:08;;;;;;;7.00;4.82;;;;;;;8.48;76.38;100404.50;5099661;28;20035;-66
2024/02/22 04:12:34;;;;;;;7.13;4.30;;;;;;;8.52;75.81;100406.75;5100600;28;20222;-66
2024/02/22 04:15:00;;;;;;;7.40;4.10;;;;;;;8.53;75.61;100404.94;5100281;28;20035;-65
2024/02/22 04:17:25;;;;;;;6.45;4.53;;;;;;;8.51;75.31;100407.72;5098985;28;20117;-64
2024/02/22 04:19:52;;;;;;;14.65;5.80;;;;;;;8.39;75.71;100411.41;5093008;28;20051;-67
2024/02/22 04:22:18;;;;;;;8.93;5.75;;;;;;;8.41;77.15;100403.38;5098114;28;20032;-66
2024/02/22 04:24:44;;;;;;;9.63;5.45;;;;;;;8.49;76.77;100404.38;5100122;28;20036;-66
2024/02/22 04:27:09;;;;;;;11.43;6.57;;;;;;;8.50;76.19;100405.22;5100212;28;20245;-65
2024/02/22 04:29:38;;;;;;;9.05;4.90;;;;;;;8.29;77.00;100402.56;5099065;28;20058;-66
2024/02/22 04:32:04;;;;;;;9.45;5.15;;;;;;;8.33;76.74;100388.19;5099475;28;20044;-65
2024/02/22 04:34:29;;;;;;;8.52;5.10;;;;;;;8.35;77.07;100390.69;5100592;28;20086;-65
2024/02/22 04:36:55;;;;;;;8.70;5.13;;;;;;;8.39;76.65;100400.84;5098194;28;20289;-65
2024/02/22 04:39:20;;;;;;;6.30;4.53;;;;;;;8.36;76.90;100384.47;5099893;28;20314;-64
2024/02/22 04:41:46;;;;;;;6.30;4.85;;;;;;;8.39;76.51;100392.09;5096477;28;20043;-65
2024/02/22 04:44:12;;;;;;;5.97;4.35;;;;;;;8.37;76.28;100386.97;5100079;28;20112;-65
2024/02/22 04:46:37;;;;;;;6.20;4.88;;;;;;;8.34;76.26;100381.94;5094115;28;20343;-65
2024/02/22 04:49:04;;;;;;;7.75;4.88;;;;;;;8.30;76.45;100381.31;5092159;28;20032;-64
2024/02/22 04:51:31;;;;;;;7.50;5.35;;;;;;;8.29;76.58;100382.28;5099429;28;20036;-64
2024/02/22 04:53:57;;;;;;;11.60;8.02;;;;;;;8.20;77.35;100379.59;5099164;28;20452;-65
2024/02/22 04:56:23;;;;;;;15.85;10.23;;;;;;;8.17;78.03;100374.59;5099671;28;20223;-65
2024/02/22 04:58:48;;;;;;;12.95;8.05;;;;;;;8.18;77.92;100384.16;5099771;28;20036;-68
2024/02/22 05:01:14;;;;;;;7.93;6.38;;;;;;;8.08;76.88;100384.13;5099393;28;20044;-67
2024/02/22 05:03:39;;;;;;;7.72;5.13;;;;;;;7.84;73.51;100388.81;5099484;28;20044;-67
2024/02/22 05:06:05;;;;;;;9.18;6.07;;;;;;;7.66;75.00;100396.47;5099262;28;20048;-66
2024/02/22 05:08:31;;;;;;;14.82;6.63;;;;;;;7.67;75.62;100395.50;5099125;28;20095;-67
2024/02/22 05:10:56;;;;;;;11.23;6.47;;;;;;;7.69;75.96;100394.41;5098663;28;20051;-66
2024/02/22 05:13:22;;;;;;;12.45;7.47;;;;;;;7.70;77.16;100395.25;5099822;28;20036;-67
2024/02/22 05:15:48;;;;;;;11.13;7.53;;;;;;;7.83;77.14;100402.97;5099502;28;20040;-67
2024/02/22 05:18:13;;;;;;;15.63;7.72;;;;;;;7.82;77.43;100398.66;5099843;28;20304;-68
2024/02/22 05:20:39;;;;;;;8.75;6.10;;;;;;;7.76;78.49;100407.91;5100226;28;20122;-67
2024/02/22 05:23:07;;;;;;;10.82;5.70;;;;;;;7.55;80.71;100418.44;5100101;28;20043;-66
2024/02/22 05:25:33;;;;;;;10.40;6.55;;;;;;;7.62;80.41;100413.50;5099167;28;20241;-67
2024/02/22 05:27:59;;;;;;;9.35;5.75;;;;;;;7.66;80.94;100413.13;5100010;28;20028;-67
2024/02/22 05:30:25;;;;;;;10.45;5.30;;;;;;;7.55;81.76;100417.59;5099642;28;20330;-68
2024/02/22 05:32:50;;;;;;;9.13;5.10;;;;;;;7.47;82.67;100420.88;5099083;28;20020;-67
2024/02/22 05:35:16;;;;;;;7.05;4.88;;;;;;;7.45;82.42;100420.16;5099416;28;20028;-67
2024/02/22 05:37:42;;;;;;;9.45;5.07;;;;;;;7.61;81.92;100417.09;5098766;28;20052;-67
2024/02/22 05:40:10;;;;;;;10.38;6.00;;;;;;;7.60;82.68;100411.00;5098635;28;20317;-66
2024/02/22 05:42:36;;;;;;;10.10;5.97;;;;;;;7.44;84.17;100421.13;5098355;28;20097;-66
2024/02/22 05:45:03;;;;;;;10.40;5.60;;;;;;;7.48;83.98;100412.00;5098977;28;20028;-67
2024/02/22 05:47:29;;;;;;;9.73;5.35;;;;;;;7.61;83.59;100417.09;5092379;28;20089;-67
2024/02/22 05:49:54;;;;;;;6.85;4.88;;;;;;;7.57;83.05;100411.25;5099679;28;20032;-67
2024/02/22 05:52:20;;;;;;;7.25;4.78;;;;;;;7.54;84.02;100418.56;5099466;28;20284;-67
2024/02/22 05:54:45;;;;;;;6.55;3.97;;;;;;;7.41;84.99;100415.28;5098946;28;20031;-67
2024/02/22 05:57:12;;;;;;;7.38;4.20;;;;;;;7.22;84.67;100400.09;5098812;28;20032;-67
2024/02/22 05:59:38;;;;;;;6.90;4.30;;;;;;;7.39;84.07;100422.47;5098914;28;20088;-67
2024/02/22 06:02:03;;;;;;;6.97;5.25;;;;;;;7.57;83.52;100427.06;5099155;28;20081;-67
2024/02/22 06:04:29;;;;;;;6.57;4.03;;;;;;;7.67;83.21;100432.41;5098511;28;20077;-68
2024/02/22 06:06:55;;;;;;;5.47;4.20;;;;;;;7.50;84.07;100430.31;5099433;28;20102;-64
2024/02/22 06:09:20;;;;;;;6.65;4.43;;;;;;;7.52;84.16;100437.16;5094254;28;20051;-64
2024/02/22 06:11:46;;;;;;;6.82;4.10;;;;;;;7.50;83.95;100444.34;5093768;28;20290;-64
2024/02/22 06:14:11;;;;;;;7.13;4.40;;;;;;;7.55;83.89;100443.97;5097592;28;20035;-65
2024/02/22 06:16:37;;;;;;;7.20;4.63;;;;;;;7.66;83.90;100442.13;5097353;28;20044;-66
2024/02/22 06:19:02;;;;;;;8.23;4.57;;;;;;;7.79;83.59;100455.13;5097476;28;20107;-65
2024/02/22 06:21:28;;;;;;;7.78;4.53;;;;;;;7.51;83.65;100458.34;5097551;28;20062;-64
2024/02/22 06:23:55;;;;;;;8.18;4.10;;;;;;;7.49;85.15;100455.84;5097244;28;20043;-65
2024/02/22 06:26:20;;;;;;;8.43;4.63;;;;;;;7.73;84.45;100452.16;5097968;28;20039;-65
2024/02/22 06:28:47;;;;;;;8.85;4.80;;;;;;;7.75;83.98;100451.06;5097989;28;20237;-64
2024/02/22 06:31:13;;;;;;;9.25;4.22;;;;;;;8.05;82.50;100455.59;5097888;28;20361;-65
2024/02/22 06:33:39;;;;;;;5.70;4.13;;;;;;;8.22;81.85;100457.66;5097678;28;20048;-67
2024/02/22 06:36:06;;;;;;;6.15;4.07;;;;;;;8.25;81.39;100428.38;5098133;28;20219;-68
2024/02/22 06:38:31;;;;;;;8.85;5.47;;;;;;;8.50;81.31;100450.91;5096112;28;20036;-67
2024/02/22 06:40:58;;;;;;;8.65;5.95;;;;;;;8.77;80.67;100458.25;5088875;28;20337;-67
2024/02/22 06:43:24;;;;;;;10.20;6.50;;;;;;;8.76;79.88;100458.41;5088301;28;20123;-67
2024/02/22 06:45:50;;;;;;;8.02;5.18;;;;;;;8.94;79.00;100454.97;5093575;28;20028;-67
2024/02/22 06:48:15;;;;;;;5.95;5.32;;;;;;;9.12;78.76;100462.25;5097360;28;20036;-67
2024/02/22 06:50:41;;;;;;;6.35;5.03;;;;;;;9.26;77.69;100462.72;5096864;28;20505;-67
2024/02/22 06:53:07;;;;;;;10.02;5.40;;;;;;;9.44;78.05;100470.00;5097635;28;20044;-67
2024/02/22 06:55:33;;;;;;;8.05;4.70;;;;;;;9.46;77.46;100463.59;5096840;28;20349;-67
2024/02/22 06:58:00;;;;;;;12.25;5.38;;;;;;;9.59;76.24;100460.69;5096717;28;20071;-67
2024/02/22 07:00:26;;;;;;;9.35;5.15;;;;;;;9.82;76.05;100461.25;5097944;28;20043;-68
2024/02/22 07:02:52;;;;;;;7.88;5.47;;;;;;;9.94;75.26;100460.13;5097029;28;20081;-66
2024/02/22 07:05:18;;;;;;;9.98;5.55;;;;;;;10.10;74.22;100451.63;5096661;28;20023;-66
2024/02/22 07:07:44;;;;;;;6.15;4.38;;;;;;;10.21;72.39;100456.78;5096453;28;20157;-65
2024/02/22 07:10:14;;;;;;;9.40;4.97;;;;;;;10.36;71.83;100443.94;5097620;28;20048;-65
2024/02/22 07:12:43;;;;;;;10.75;4.97;;;;;;;10.48;69.19;100448.94;5098152;28;20039;-65
2024/02/22 07:15:09;;;;;;;6.40;4.28;;;;;;;10.49;69.69;100449.78;5102030;28;20128;-65
2024/02/22 07:17:35;;;;;;;6.95;4.40;;;;;;;10.60;69.95;100448.78;5100737;28;20036;-65
2024/02/22 07:20:00;;;;;;;6.25;4.72;;;;;;;10.81;69.85;100457.31;5101204;28;20038;-65
2024/02/22 07:22:26;;;;;;;5.78;4.38;;;;;;;10.82;70.11;100454.53;5101847;28;20032;-65
2024/02/22 07:24:51;;;;;;;5.75;3.63;;;;;;;10.87;67.81;100459.41;5101808;28;20314;-65
2024/02/22 07:27:17;;;;;;;8.07;4.60;;;;;;;10.80;68.49;100453.84;5102269;28;20032;-65
2024/02/22 07:29:43;;;;;;;6.90;4.32;;;;;;;10.64;69.91;100450.16;5102018;28;20063;-65
2024/02/22 07:32:08;;;;;;;7.40;4.13;;;;;;;10.83;68.56;100448.25;5101908;28;20122;-65
2024/02/22 07:34:34;;;;;;;7.43;4.88;;;;;;;10.93;68.48;100442.91;5101887;28;20037;-66
2024/02/22 07:37:00;;;;;;;6.10;4.28;;;;;;;11.11;68.76;100443.78;5101440;28;20531;-66
2024/02/22 07:39:25;;;;;;;9.55;4.30;;;;;;;11.37;68.82;100438.59;5101604;28;20105;-66
2024/02/22 07:41:51;;;;;;;6.45;4.13;;;;;;;11.28;67.66;100443.97;5100302;28;20028;-65
2024/02/22 07:44:17;;;;;;;7.45;4.15;;;;;;;11.26;68.64;100440.63;5093059;28;20298;-65
2024/02/22 07:46:43;;;;;;;5.53;4.20;;;;;;;11.32;67.89;100440.88;5101275;28;20046;-65
2024/02/22 07:49:08;;;;;;;6.65;4.10;;;;;;;11.23;68.99;100436.47;5101956;28;20036;-66
2024/02/22 07:51:34;;;;;;;8.27;5.47;;;;;;;11.49;68.24;100431.28;5101600;28;20082;-66
2024/02/22 07:54:00;;;;;;;6.68;4.68;;;;;;;11.37;69.23;100435.09;5101597;28;20044;-66
2024/02/22 07:56:25;;;;;;;7.10;4.40;;;;;;;11.33;69.34;100434.56;5101195;28;20046;-66
2024/02/22 07:58:57;;;;;;;6.72;4.20;;;;;;;11.37;68.86;100433.28;5092629;28;20343;-66
2024/02/22 08:01:23;;;;;;;7.75;4.32;;;;;;;11.71;67.78;100432.66;5101517;28;20023;-65
2024/02/22 08:03:49;;;;;;;7.13;4.88;;;;;;;11.70;68.11;100428.31;5100519;28;20079;-66
2024/02/22 08:06:15;;;;;;;9.05;4.68;;;;;;;11.74;66.18;100419.06;5097238;28;20102;-66
2024/02/22 08:08:41;;;;;;;6.03;3.95;;;;;;;11.92;65.46;100422.56;5100837;28;20334;-66
2024/02/22 08:11:08;;;;;;;6.25;3.47;;;;;;;12.19;65.62;100426.91;5099827;28;20039;-66
2024/02/22 08:13:33;;;;;;;5.90;3.85;;;;;;;12.10;64.29;100422.53;5100202;28;20036;-66
2024/02/22 08:16:06;;;;;;;6.45;3.75;;;;;;;12.21;66.03;100413.47;5099155;28;20453;-65
2024/02/22 08:18:42;;;;;;;5.87;3.87;;;;;;;12.22;64.50;100418.63;5098679;28;20317;-66
2024/02/22 08:21:08;;;;;;;4.53;3.10;;;;;;;12.47;64.83;100407.16;5098798;28;20094;-64
2024/02/22 08:23:34;;;;;;;5.35;3.47;;;;;;;12.58;65.21;100400.78;5098528;28;20048;-65
2024/02/22 08:26:00;;;;;;;4.75;3.55;;;;;;;12.65;65.43;100408.94;5098846;28;20103;-65
2024/02/22 08:28:28;;;;;;;6.60;3.33;;;;;;;12.79;64.82;100401.19;5100080;28;20536;-65
2024/02/22 08:30:54;;;;;;;5.93;4.22;;;;;;;12.90;64.31;100400.06;5099631;28;20326;-65
2024/02/22 08:33:23;;;;;;;5.38;3.33;;;;;;;12.81;64.02;100398.38;5099904;28;20093;-66
2024/02/22 08:35:48;;;;;;;11.82;5.05;;;;;;;12.73;63.55;100399.19;5099862;28;20304;-65
2024/02/22 08:38:14;;;;;;;5.82;3.53;;;;;;;12.85;62.77;100398.88;5100219;28;20054;-65
2024/02/22 08:40:42;;;;;;;8.43;3.60;;;;;;;13.00;62.12;100397.28;5100486;28;20032;-66
2024/02/22 08:43:08;;;;;;;6.95;4.43;;;;;;;12.97;62.91;100390.44;5100459;28;20066;-65
2024/02/22 08:45:35;;;;;;;7.47;4.25;;;;;;;13.01;61.87;100391.78;5099439;28;20314;-66
2024/02/22 08:48:00;;;;;;;4.93;3.50;;;;;;;13.11;59.13;100392.50;5099173;28;20257;-65
2024/02/22 08:50:26;;;;;;;6.47;3.85;;;;;;;13.06;59.37;100389.47;5089590;28;20044;-66
2024/02/22 08:52:51;;;;;;;8.88;4.40;;;;;;;13.16;60.30;100399.16;5099147;28;20036;-66
2024/02/22 08:55:17;;;;;;;5.65;3.88;;;;;;;13.02;60.69;100388.16;5099702;28;20024;-65
2024/02/22 08:57:52;;;;;;;7.40;4.85;;;;;;;12.99;61.63;100387.63;5099505;28;20050;-68
2024/02/22 09:00:19;;;;;;;9.30;5.28;;;;;;;13.23;60.17;100389.56;5099545;28;20069;-67
2024/02/22 09:02:45;;;;;;;6.53;4.10;;;;;;;13.22;60.18;100391.38;5098955;28;20135;-68
2024/02/22 09:05:11;;;;;;;7.00;4.18;;;;;;;13.24;58.07;100386.72;5099053;28;20039;-67
2024/02/22 09:07:41;;;;;;;6.15;4.05;;;;;;;13.17;59.87;100385.72;5099127;28;20032;-68
2024/02/22 09:10:08;;;;;;;4.80;3.20;;;;;;;13.24;58.17;100381.41;5099017;28;20103;-67
2024/02/22 09:12:34;;;;;;;6.00;2.97;;;;;;;13.48;58.66;100379.78;5098798;28;20040;-67
2024/02/22 09:15:01;;;;;;;6.35;3.58;;;;;;;13.49;58.22;100381.44;5098933;28;20035;-68
2024/02/22 09:17:26;;;;;;;6.10;3.63;;;;;;;13.41;56.28;100380.44;5098650;28;20225;-67
2024/02/22 09:19:52;;;;;;;5.05;3.38;;;;;;;13.52;56.25;100379.28;5098831;28;20350;-68
2024/02/22 09:22:20;;;;;;;5.80;3.70;;;;;;;13.53;57.62;100373.00;5097784;28;20036;-68
2024/02/22 09:24:46;;;;;;;6.82;3.97;;;;;;;13.56;56.56;100375.31;5097343;28;20111;-67
2024/02/22 09:27:12;;;;;;;5.38;3.72;;;;;;;13.57;57.32;100366.34;5095377;28;20257;-67
2024/02/22 09:29:38;;;;;;;5.82;4.00;;;;;;;13.30;59.35;100371.94;5098685;28;20035;-67
2024/02/22 09:32:07;;;;;;;5.32;3.58;;;;;;;13.38;58.44;100364.81;5099075;28;20043;-66
2024/02/22 09:34:39;;;;;;;6.38;4.20;;;;;;;13.46;58.54;100356.00;5098695;28;20036;-67
2024/02/22 09:37:05;;;;;;;8.02;4.82;;;;;;;13.47;59.69;100351.50;5096779;28;20048;-67
2024/02/22 09:39:32;;;;;;;7.55;5.15;;;;;;;13.27;58.65;100358.97;5089999;28;20222;-68
2024/02/22 09:41:58;;;;;;;6.45;4.63;;;;;;;13.40;60.15;100346.03;5098892;28;20097;-67
2024/02/22 09:44:24;;;;;;;6.78;4.07;;;;;;;13.37;59.01;100347.19;5098571;28;20032;-65
2024/02/22 09:46:53;;;;;;;4.68;3.58;;;;;;;13.04;60.36;100348.09;5098146;28;20020;-65
2024/02/22 09:49:22;;;;;;;6.03;4.03;;;;;;;12.71;61.65;100341.88;5098227;28;20073;-65
2024/02/22 09:51:53;;;;;;;6.50;3.90;;;;;;;12.87;61.69;100344.56;5098303;28;20024;-65
2024/02/22 09:54:20;;;;;;;6.35;4.50;;;;;;;13.04;61.06;100340.97;5097058;28;20040;-65
2024/02/22 09:56:47;;;;;;;6.43;4.05;;;;;;;13.11;60.20;100338.47;5096737;28;20063;-65
2024/02/22 09:59:14;;;;;;;6.53;4.28;;;;;;;13.21;59.88;100331.22;5096651;28;20051;-66
2024/02/22 10:01:40;;;;;;;6.68;4.40;;;;;;;13.11;60.18;100323.34;5097795;28;20086;-66
2024/02/22 10:04:16;;;;;;;4.57;4.07;;;;;;;13.01;59.16;100324.50;5098344;28;20044;-65
2024/02/22 10:06:42;;;;;;;7.13;3.95;;;;;;;13.09;59.03;100325.34;5097354;28;20032;-65
2024/02/22 10:09:08;;;;;;;7.53;3.83;;;;;;;13.14;59.26;100319.53;5092606;28;20341;-65
2024/02/22 10:11:37;;;;;;;7.25;4.88;;;;;;;12.76;59.42;100310.34;5087902;28;20039;-65
2024/02/22 10:14:03;;;;;;;6.53;4.38;;;;;;;12.83;60.43;100303.38;5097866;28;20044;-65
2024/02/22 10:16:29;;;;;;;7.53;4.05;;;;;;;12.95;60.47;100293.25;5097368;28;20067;-65
2024/02/22 10:19:00;;;;;;;5.88;4.13;;;;;;;13.15;62.69;100296.44;5097663;28;20054;-65
2024/02/22 10:21:28;;;;;;;7.47;4.80;;;;;;;13.22;59.46;100289.50;5097681;28;20039;-65
2024/02/22 10:23:58;;;;;;;7.93;4.40;;;;;;;13.15;61.05;100286.63;5097222;28;20036;-65
2024/02/22 10:26:24;;;;;;;5.65;4.28;;;;;;;13.24;59.24;100282.19;5097280;28;20028;-65
2024/02/22 10:28:59;;;;;;;7.80;5.40;;;;;;;13.20;59.69;100276.38;5097593;28;20032;-65
2024/02/22 10:31:24;;;;;;;7.20;4.47;;;;;;;12.83;62.41;100273.31;5097890;28;20225;-65
2024/02/22 10:33:52;;;;;;;6.63;4.97;;;;;;;12.88;61.89;100261.19;5097560;28;20040;-65
2024/02/22 10:36:19;;;;;;;7.70;5.10;;;;;;;13.10;59.45;100263.19;5097540;28;20071;-65
2024/02/22 10:38:45;;;;;;;7.38;4.50;;;;;;;13.28;58.63;100259.56;5096425;28;20273;-65
2024/02/22 10:41:13;;;;;;;7.00;5.07;;;;;;;13.28;58.91;100251.59;5096526;28;20065;-66
2024/02/22 10:43:43;;;;;;;6.03;4.82;;;;;;;13.33;60.33;100246.59;5097340;28;20334;-67
2024/02/22 10:46:10;;;;;;;5.68;4.15;;;;;;;12.99;59.46;100250.22;5089203;28;20130;-67
2024/02/22 10:48:42;;;;;;;5.63;4.35;;;;;;;12.84;59.79;100235.09;5097805;28;20217;-68
2024/02/22 10:51:09;;;;;;;6.15;5.00;;;;;;;13.09;57.67;100237.59;5095911;28;20038;-67
2024/02/22 10:53:39;;;;;;;6.93;4.40;;;;;;;13.31;58.13;100225.50;5097767;28;20036;-67
2024/02/22 10:56:06;;;;;;;6.15;4.75;;;;;;;13.33;58.36;100218.19;5096341;28;20036;-68
2024/02/22 10:58:36;;;;;;;7.68;4.75;;;;;;;13.09;59.81;100218.16;5097819;28;20104;-67
2024/02/22 11:01:06;;;;;;;8.80;6.60;;;;;;;12.97;61.13;100220.31;5096465;28;20032;-65
2024/02/22 11:03:33;;;;;;;6.97;5.40;;;;;;;13.13;58.92;100200.88;5098157;28;20040;-65
2024/02/22 11:06:03;;;;;;;9.10;6.07;;;;;;;13.32;59.40;100211.19;5096281;28;20035;-65
2024/02/22 11:08:29;;;;;;;8.60;6.13;;;;;;;13.13;59.47;100200.88;5097482;28;20360;-65
2024/02/22 11:11:04;;;;;;;9.07;6.57;;;;;;;13.11;59.22;100198.38;5096762;28;20311;-65
2024/02/22 11:13:30;;;;;;;8.15;5.72;;;;;;;13.15;57.14;100193.56;5097409;28;20105;-65
2024/02/22 11:15:55;;;;;;;9.80;7.15;;;;;;;13.11;56.87;100190.41;5096555;28;20333;-65
2024/02/22 11:18:24;;;;;;;8.23;5.82;;;;;;;13.15;56.98;100188.25;5096628;28;20082;-65
2024/02/22 11:20:50;;;;;;;8.98;6.68;;;;;;;13.01;57.62;100184.44;5096577;28;20290;-65
2024/02/22 11:23:21;;;;;;;8.50;6.05;;;;;;;13.11;57.06;100182.44;5096562;28;20036;-66
2024/02/22 11:25:46;;;;;;;8.45;5.57;;;;;;;13.25;56.16;100167.66;5097062;28;20311;-67